PWSweather.com
Personal Weather Stations
Station Observations
KA1WBH
West Island, Fairhaven, MA 02719

West IslandFairhaven, MA 02719

Lat: 41.5979996, Lon: -70.8330002

Elevation: 78

Station Type: Davis Vantage Pro II

Latest ConditionsUpdated 4:55:04 AM EST Friday, Dec 19, 2014
Currently Today's Max Today's Min Today's Average
Temperature 35.3°F1.8°C 36.3°F2.4°C 35.3°F1.8°C 35.7°F2.1°C
Dew Point 29.8°F-1.2°C 30.8°F-0.7°C 29.8°F-1.2°C 30.2°F-1.0°C
Winds 2.0 mph WNW3.2 kmh WNW 10.0 mph W16.1 kmh W - 3.7 mph 6.0 kmh
Wind Gusts 7.0 mph11.3 kmh 14.0 mph22.5 kmh - -
Humidity 80% 82% 79% 80%
Pressure 29.91 in1012.9 mb 29.91 in1012.9 mb 29.89 in1012.2 mb -
Hour Temp Dew Point Humidity Winds Wind Gusts Pressure Precip Precip Rate Daily Precip Total
04:55 AM 35.3°F1.8°C 29.8°F-1.2°C 80% 2.0 mph WNW3.2 kmh WNW 7.0 mph11.3 kmh 29.91 in1012.9 mb 0.00 in0.0 mm 0.00 in/hr0.0 mm/hr 0.00 in0.0 mm
04:45 AM 35.3°F1.8°C 29.8°F-1.2°C 80% 3.0 mph WNW4.8 kmh WNW 7.0 mph11.3 kmh 29.90 in1012.5 mb 0.00 in0.0 mm 0.00 in/hr0.0 mm/hr 0.00 in0.0 mm
04:30 AM 35.3°F1.8°C 29.8°F-1.2°C 80% 2.0 mph WNW3.2 kmh WNW 7.0 mph11.3 kmh 29.90 in1012.5 mb 0.00 in0.0 mm 0.00 in/hr0.0 mm/hr 0.00 in0.0 mm
04:15 AM 35.4°F1.9°C 29.9°F-1.2°C 80% 3.0 mph WNW4.8 kmh WNW 11.0 mph17.7 kmh 29.90 in1012.5 mb 0.00 in0.0 mm 0.00 in/hr0.0 mm/hr 0.00 in0.0 mm
04:00 AM 35.4°F1.9°C 29.9°F-1.2°C 80% 3.0 mph WNW4.8 kmh WNW 10.0 mph16.1 kmh 29.90 in1012.5 mb 0.00 in0.0 mm 0.00 in/hr0.0 mm/hr 0.00 in0.0 mm
03:45 AM 35.6°F2.0°C 30.1°F-1.1°C 80% 2.0 mph NW3.2 kmh NW 13.0 mph20.9 kmh 29.89 in1012.2 mb 0.00 in0.0 mm 0.00 in/hr0.0 mm/hr 0.00 in0.0 mm
03:30 AM 35.7°F2.1°C 29.8°F-1.2°C 79% 9.0 mph WNW14.5 kmh WNW 13.0 mph20.9 kmh 29.90 in1012.5 mb 0.00 in0.0 mm 0.00 in/hr0.0 mm/hr 0.00 in0.0 mm
03:15 AM 35.8°F2.1°C 30.3°F-0.9°C 80% 6.0 mph W9.7 kmh W 14.0 mph22.5 kmh 29.90 in1012.5 mb 0.00 in0.0 mm 0.00 in/hr0.0 mm/hr 0.00 in0.0 mm
03:00 AM 35.9°F2.2°C 30.3°F-0.9°C 80% 2.0 mph NW3.2 kmh NW 10.0 mph16.1 kmh 29.90 in1012.5 mb 0.00 in0.0 mm 0.00 in/hr0.0 mm/hr 0.00 in0.0 mm
02:45 AM 35.7°F2.1°C 30.2°F-1.0°C 80% 2.0 mph WSW3.2 kmh WSW 8.0 mph12.9 kmh 29.90 in1012.5 mb 0.00 in0.0 mm 0.00 in/hr0.0 mm/hr 0.00 in0.0 mm
02:30 AM 35.5°F1.9°C 30.3°F-0.9°C 81% 6.0 mph WNW9.7 kmh WNW 10.0 mph16.1 kmh 29.90 in1012.5 mb 0.00 in0.0 mm 0.00 in/hr0.0 mm/hr 0.00 in0.0 mm
02:15 AM 35.8°F2.1°C 30.3°F-0.9°C 80% 1.0 mph W1.6 kmh W 10.0 mph16.1 kmh 29.90 in1012.5 mb 0.00 in0.0 mm 0.00 in/hr0.0 mm/hr 0.00 in0.0 mm
02:00 AM 36.1°F2.3°C 30.2°F-1.0°C 79% 1.0 mph WNW1.6 kmh WNW 8.0 mph12.9 kmh 29.90 in1012.5 mb 0.00 in0.0 mm 0.00 in/hr0.0 mm/hr 0.00 in0.0 mm
01:45 AM 36.3°F2.4°C 30.7°F-0.7°C 80% 1.0 mph NW1.6 kmh NW 12.0 mph19.3 kmh 29.89 in1012.2 mb 0.00 in0.0 mm 0.00 in/hr0.0 mm/hr 0.00 in0.0 mm
01:30 AM 36.2°F2.3°C 30.6°F-0.8°C 80% 5.0 mph WNW8.0 kmh WNW 11.0 mph17.7 kmh 29.89 in1012.2 mb 0.00 in0.0 mm 0.00 in/hr0.0 mm/hr 0.00 in0.0 mm
01:15 AM 36.1°F2.3°C 30.8°F-0.7°C 81% 3.0 mph W4.8 kmh W 13.0 mph20.9 kmh 29.89 in1012.2 mb 0.00 in0.0 mm 0.00 in/hr0.0 mm/hr 0.00 in0.0 mm
01:00 AM 35.9°F2.2°C 30.7°F-0.7°C 81% 5.0 mph WNW8.0 kmh WNW 12.0 mph19.3 kmh 29.89 in1012.2 mb 0.00 in0.0 mm 0.00 in/hr0.0 mm/hr 0.00 in0.0 mm
12:45 AM 35.7°F2.1°C 30.5°F-0.8°C 81% 2.0 mph WNW3.2 kmh WNW 12.0 mph19.3 kmh 29.89 in1012.2 mb 0.00 in0.0 mm 0.00 in/hr0.0 mm/hr 0.00 in0.0 mm
12:30 AM 35.4°F1.9°C 30.5°F-0.8°C 82% 3.0 mph W4.8 kmh W 13.0 mph20.9 kmh 29.89 in1012.2 mb 0.00 in0.0 mm 0.00 in/hr0.0 mm/hr 0.00 in0.0 mm
12:15 AM 35.3°F1.8°C 30.4°F-0.9°C 82% 10.0 mph W16.1 kmh W 10.0 mph16.1 kmh 29.89 in1012.2 mb 0.00 in0.0 mm 0.00 in/hr0.0 mm/hr 0.00 in0.0 mm
12:00 AM 35.3°F1.8°C 30.4°F-0.9°C 82% 7.0 mph WSW11.3 kmh WSW 10.0 mph16.1 kmh 29.90 in1012.5 mb 0.00 in0.0 mm 0.00 in/hr0.0 mm/hr 0.00 in0.0 mm